createdAt,value
2022-12-18T00:04:52.126Z,39.70
2022-12-18T00:09:59.254Z,39.70
2022-12-18T00:15:07.497Z,37.20
2022-12-18T00:20:15.261Z,50.60
2022-12-18T00:25:22.760Z,46.90
2022-12-18T00:30:30.433Z,40.60
2022-12-18T00:35:37.924Z,38.90
2022-12-18T00:40:45.057Z,42.80
2022-12-18T00:45:53.563Z,43.40
2022-12-18T00:51:00.924Z,47.10
2022-12-18T00:56:08.524Z,47.30
2022-12-18T01:01:15.671Z,47.50
2022-12-18T01:06:22.786Z,48.90
2022-12-18T01:11:30.056Z,63.50
2022-12-18T01:16:37.675Z,58.40
2022-12-18T01:21:45.361Z,54.90
2022-12-18T01:26:52.379Z,50.30
2022-12-18T01:31:59.944Z,50.20
2022-12-18T01:37:07.784Z,47.50
2022-12-18T01:47:41.447Z,46.10
2022-12-18T01:52:52.133Z,44.30
2022-12-18T01:58:02.665Z,45.40
2022-12-18T02:03:09.957Z,56.30
2022-12-18T02:08:23.142Z,52.90
2022-12-18T02:13:38.861Z,51.00
2022-12-18T02:18:50.992Z,46.40
2022-12-18T02:24:08.540Z,49.70
2022-12-18T02:29:20.242Z,47.40
2022-12-18T02:34:31.445Z,44.20
2022-12-18T02:39:40.936Z,43.30
2022-12-18T02:44:52.304Z,42.30
2022-12-18T02:50:12.378Z,43.60
2022-12-18T02:55:30.342Z,43.20
2022-12-18T03:00:46.340Z,36.10
2022-12-18T03:05:58.978Z,33.50
2022-12-18T03:11:09.894Z,34.20
2022-12-18T03:16:24.677Z,35.50
2022-12-18T03:21:36.529Z,34.30
2022-12-18T03:26:47.079Z,34.40
2022-12-18T03:32:00.762Z,35.30
2022-12-18T03:37:08.785Z,42.10
2022-12-18T03:42:28.068Z,38.10
2022-12-18T03:47:52.382Z,36.30
2022-12-18T03:53:06.374Z,31.20
2022-12-18T03:58:18.387Z,30.10
2022-12-18T04:03:36.607Z,26.80
2022-12-18T04:08:44.955Z,29.50
2022-12-18T04:13:57.414Z,25.90
2022-12-18T04:19:04.840Z,25.70
2022-12-18T04:24:17.260Z,27.40
2022-12-18T04:29:32.407Z,34.90
2022-12-18T04:34:40.072Z,30.40
2022-12-18T04:45:00.109Z,26.60
2022-12-18T04:50:08.415Z,26.60
2022-12-18T04:55:15.477Z,25.70
2022-12-18T05:00:23.164Z,28.00
2022-12-18T05:10:38.270Z,25.60
2022-12-18T05:15:53.742Z,26.20
2022-12-18T05:21:00.868Z,26.20
2022-12-18T05:26:09.530Z,32.60
2022-12-18T05:31:17.312Z,30.90
2022-12-18T05:36:24.444Z,28.00
2022-12-18T05:41:31.543Z,28.40
2022-12-18T05:46:38.672Z,31.10
2022-12-18T05:51:48.583Z,31.00
2022-12-18T05:56:55.860Z,29.50
2022-12-18T06:02:03.068Z,30.80
2022-12-18T06:07:10.172Z,30.30
2022-12-18T06:12:17.304Z,32.50
2022-12-18T06:17:24.414Z,29.40
2022-12-18T06:22:32.638Z,42.10
2022-12-18T06:27:39.896Z,40.80
2022-12-18T06:32:50.460Z,37.20
2022-12-18T06:38:00.279Z,36.20
2022-12-18T06:43:07.451Z,36.40
2022-12-18T06:48:14.517Z,39.50
2022-12-18T06:53:21.652Z,41.10
2022-12-18T06:58:29.068Z,39.80
2022-12-18T07:03:36.194Z,34.50
2022-12-18T07:08:43.394Z,36.30
2022-12-18T07:13:50.545Z,45.90
2022-12-18T07:18:58.160Z,47.90
2022-12-18T07:24:05.674Z,37.90
2022-12-18T07:29:12.754Z,33.80
2022-12-18T07:34:19.941Z,34.80
2022-12-18T07:39:27.031Z,35.30
2022-12-18T07:44:34.014Z,35.20
2022-12-18T07:49:41.076Z,39.50
2022-12-18T07:54:50.062Z,37.40
2022-12-18T07:59:57.173Z,32.00
2022-12-18T08:05:04.376Z,44.60
2022-12-18T08:10:12.394Z,43.70
2022-12-18T08:15:19.905Z,41.60
2022-12-18T08:20:27.003Z,38.80
2022-12-18T08:25:34.159Z,40.90
2022-12-18T08:30:41.445Z,39.10
2022-12-18T08:41:02.405Z,34.40
2022-12-18T08:46:10.611Z,36.90
2022-12-18T08:51:19.878Z,34.20
2022-12-18T08:56:27.011Z,47.70
2022-12-18T09:01:34.404Z,47.20
2022-12-18T09:06:42.701Z,39.60
2022-12-18T09:11:49.863Z,38.90
2022-12-18T09:22:03.333Z,36.30
2022-12-18T09:27:10.484Z,36.90
2022-12-18T09:32:22.325Z,34.90
2022-12-18T09:37:30.014Z,31.00
2022-12-18T09:42:37.275Z,28.80
2022-12-18T09:47:47.067Z,43.50
2022-12-18T09:52:58.184Z,36.40
2022-12-18T09:58:12.540Z,31.60
2022-12-18T10:03:19.966Z,29.10
2022-12-18T10:08:36.158Z,27.20
2022-12-18T10:13:50.155Z,30.50
2022-12-18T10:19:10.062Z,31.40
2022-12-18T10:24:27.221Z,29.40
2022-12-18T10:29:34.370Z,31.30
2022-12-18T10:34:44.140Z,30.40
2022-12-18T10:40:14.304Z,27.90
2022-12-18T10:45:28.943Z,34.20
2022-12-18T10:51:09.797Z,32.70
2022-12-18T10:56:08.956Z,28.00
2022-12-18T11:01:18.341Z,31.20
2022-12-18T11:06:27.220Z,33.20
2022-12-18T11:11:35.965Z,35.00
2022-12-18T11:17:23.722Z,28.70
2022-12-18T11:22:25.633Z,30.20
2022-12-18T11:27:33.835Z,31.40
2022-12-18T11:32:43.219Z,31.50
2022-12-18T11:38:00.460Z,32.50
2022-12-18T11:43:13.132Z,39.70
2022-12-18T11:48:24.456Z,35.60
2022-12-18T11:53:32.128Z,33.10
2022-12-18T12:04:08.457Z,35.70
2022-12-18T12:09:24.062Z,32.20
2022-12-18T12:14:44.800Z,37.10
2022-12-18T12:20:04.619Z,39.10
2022-12-18T12:25:30.160Z,38.70
2022-12-18T12:30:50.782Z,39.30
2022-12-18T12:36:06.466Z,43.20
2022-12-18T12:41:32.860Z,48.20
2022-12-18T12:46:44.014Z,47.70
2022-12-18T12:51:59.397Z,45.80
2022-12-18T12:57:14.953Z,42.20
2022-12-18T13:02:30.736Z,45.10
2022-12-18T13:07:42.935Z,44.10
2022-12-18T13:12:58.727Z,44.50
2022-12-18T13:18:23.755Z,44.40
2022-12-18T13:23:34.076Z,43.20
2022-12-18T13:28:58.180Z,40.40
2022-12-18T13:34:26.221Z,35.70
2022-12-18T13:39:38.002Z,48.10
2022-12-18T13:44:45.549Z,48.60
2022-12-18T13:55:00.395Z,40.60
2022-12-18T14:00:29.717Z,43.70
2022-12-18T14:05:39.963Z,40.90
2022-12-18T14:10:53.449Z,42.70
2022-12-18T14:16:03.791Z,42.90
2022-12-18T14:21:22.348Z,39.50
2022-12-18T14:26:31.974Z,43.40
2022-12-18T14:31:39.896Z,51.40
2022-12-18T14:42:01.166Z,41.00
2022-12-18T14:47:15.884Z,44.20
2022-12-18T14:52:30.102Z,43.00
2022-12-18T14:57:43.451Z,46.50
2022-12-18T15:02:54.743Z,49.50
2022-12-18T15:08:03.394Z,49.20
2022-12-18T15:13:25.640Z,56.40
2022-12-18T15:18:35.013Z,49.90
2022-12-18T15:23:51.723Z,50.20
2022-12-18T15:29:03.130Z,56.00
2022-12-18T15:34:23.732Z,62.10
2022-12-18T15:39:30.963Z,60.80
2022-12-18T15:44:38.139Z,56.20
2022-12-18T15:49:45.284Z,53.90
2022-12-18T15:55:10.088Z,53.30
2022-12-18T16:00:18.552Z,54.20
2022-12-18T16:05:25.661Z,49.30
2022-12-18T16:10:32.880Z,49.70
2022-12-18T16:15:40.238Z,50.10
2022-12-18T16:20:47.548Z,53.60
2022-12-18T16:25:54.787Z,59.00
2022-12-18T16:31:02.229Z,55.00
2022-12-18T16:41:34.154Z,52.30
2022-12-18T16:46:44.192Z,52.60
2022-12-18T16:51:52.363Z,52.80
2022-12-18T16:57:00.811Z,45.50
2022-12-18T17:02:08.603Z,54.50
2022-12-18T17:07:16.920Z,48.20
2022-12-18T17:12:25.433Z,51.10
2022-12-18T17:17:32.876Z,43.80
2022-12-18T17:27:46.952Z,47.60
2022-12-18T17:32:55.002Z,44.60
2022-12-18T17:38:02.479Z,45.90
2022-12-18T17:43:11.036Z,47.30
2022-12-18T17:48:18.843Z,54.10
2022-12-18T17:53:26.236Z,54.20
2022-12-18T17:58:34.070Z,52.00
2022-12-18T18:03:41.728Z,39.90
2022-12-18T18:08:49.878Z,46.80
2022-12-18T18:14:04.313Z,35.70
2022-12-18T18:19:14.130Z,41.40
2022-12-18T18:24:24.229Z,41.40
2022-12-18T18:29:31.961Z,45.50
2022-12-18T18:39:52.108Z,46.40
2022-12-18T18:44:59.254Z,47.00
2022-12-18T18:50:07.398Z,46.40
2022-12-18T18:55:20.993Z,50.60
2022-12-18T19:00:33.086Z,58.10
2022-12-18T19:10:59.352Z,48.80
2022-12-18T19:16:09.265Z,42.90
2022-12-18T19:21:19.708Z,51.40
2022-12-18T19:26:29.097Z,51.80
2022-12-18T19:31:42.107Z,50.10
2022-12-18T19:37:00.633Z,46.10
2022-12-18T19:42:08.170Z,56.60
2022-12-18T19:47:15.607Z,47.00
2022-12-18T19:52:25.059Z,61.30
2022-12-18T19:57:32.929Z,61.00
2022-12-18T20:02:40.167Z,65.80
2022-12-18T20:07:47.971Z,72.90
2022-12-18T20:12:55.382Z,67.20
2022-12-18T20:18:03.896Z,59.70
2022-12-18T20:23:11.313Z,57.20
2022-12-18T20:28:18.706Z,60.60
2022-12-18T20:33:25.897Z,64.80
2022-12-18T20:38:57.078Z,61.20
2022-12-18T20:44:23.574Z,64.10
2022-12-18T20:49:40.107Z,48.90
2022-12-18T20:55:06.264Z,61.50
2022-12-18T21:00:20.100Z,65.00
2022-12-18T21:05:30.147Z,59.30
2022-12-18T21:10:37.146Z,65.60
2022-12-18T21:15:45.797Z,62.00
2022-12-18T21:20:58.373Z,65.00
2022-12-18T21:26:20.853Z,63.20
2022-12-18T21:31:31.052Z,62.70
2022-12-18T21:36:38.371Z,56.10
2022-12-18T21:42:04.361Z,51.50
2022-12-18T21:47:22.387Z,52.80
2022-12-18T21:52:32.218Z,45.70
2022-12-18T21:57:41.492Z,44.40
2022-12-18T22:03:01.168Z,46.10
2022-12-18T22:08:16.720Z,50.20
2022-12-18T22:13:24.034Z,50.50
2022-12-18T22:18:31.501Z,48.60
2022-12-18T22:23:39.107Z,49.20
2022-12-18T22:29:04.152Z,51.90
2022-12-18T22:34:11.941Z,54.40
2022-12-18T22:39:21.351Z,41.60
2022-12-18T22:44:30.045Z,51.50
2022-12-18T22:49:37.626Z,48.00
2022-12-18T22:59:50.251Z,49.80
2022-12-18T23:04:57.304Z,49.30
2022-12-18T23:10:04.487Z,51.30
2022-12-18T23:15:13.597Z,50.70
2022-12-18T23:20:23.193Z,51.50
2022-12-18T23:25:30.301Z,55.60
2022-12-18T23:30:37.458Z,45.50
2022-12-18T23:35:44.560Z,48.10
2022-12-18T23:40:51.768Z,45.50
2022-12-18T23:46:03.431Z,35.10
2022-12-18T23:51:12.438Z,41.90
2022-12-18T23:56:19.566Z,42.30
